FFT4280 KDFW-KCVG
Flight info
| Callsign | FFT4280 |
|---|---|
| Flight time | 1h 46m |
| Altitude | 33000 |
| Route | ZACHH4 BSKAT LIT J131 HUMBO TERGE SARGO5 |
| Aircraft | A21N/M-SDE2E3FGHIRWXY/LB1 |
Departure
| Time | 2026-05-05 00:12 |
|---|---|
| Airport | Dallas Fort Worth International Airport (KDFW) |
Arrival
| Time | 2026-05-05 01:59 |
|---|---|
| Airport | Cincinnati Northern Kentucky International Airport (KCVG) |
| Time | Latitude | Longitude | Altitude | Speed | Heading |
|---|---|---|---|---|---|
| 2026-05-04 23:21 | 32.88881 | -97.03555 | 590 ft | 0 kts | 315° |
| 2026-05-05 00:00 | 32.88873 | -97.03545 | 590 ft | 4 kts | 358° |
| 2026-05-05 00:00 | 32.88875 | -97.03548 | 590 ft | 4 kts | 324° |
| 2026-05-05 00:00 | 32.88840 | -97.03524 | 590 ft | 4 kts | 1° |
| 2026-05-05 00:00 | 32.88819 | -97.03531 | 590 ft | 1 kts | 32° |
| 2026-05-05 00:01 | 32.88815 | -97.03534 | 590 ft | 0 kts | 32° |
| 2026-05-05 00:05 | 32.88829 | -97.03523 | 590 ft | 9 kts | 32° |
| 2026-05-05 00:05 | 32.88927 | -97.03470 | 590 ft | 20 kts | 20° |
| 2026-05-05 00:05 | 32.89032 | -97.03402 | 589 ft | 15 kts | 85° |
| 2026-05-05 00:05 | 32.89034 | -97.03314 | 587 ft | 9 kts | 91° |
| 2026-05-05 00:06 | 32.89035 | -97.03258 | 581 ft | 4 kts | 77° |
| 2026-05-05 00:06 | 32.89047 | -97.03222 | 579 ft | 6 kts | 52° |
| 2026-05-05 00:06 | 32.89101 | -97.03199 | 578 ft | 11 kts | 7° |
| 2026-05-05 00:06 | 32.89198 | -97.03197 | 583 ft | 17 kts | 1° |
| 2026-05-05 00:07 | 32.89329 | -97.03196 | 582 ft | 20 kts | 0° |
| 2026-05-05 00:07 | 32.89483 | -97.03196 | 584 ft | 22 kts | 0° |
| 2026-05-05 00:07 | 32.89622 | -97.03196 | 586 ft | 20 kts | 1° |
| 2026-05-05 00:07 | 32.89781 | -97.03193 | 583 ft | 21 kts | 0° |
| 2026-05-05 00:08 | 32.89936 | -97.03194 | 583 ft | 21 kts | 2° |
| 2026-05-05 00:08 | 32.90088 | -97.03192 | 581 ft | 20 kts | 0° |
| 2026-05-05 00:08 | 32.90243 | -97.03191 | 578 ft | 21 kts | 0° |
| 2026-05-05 00:08 | 32.90402 | -97.03191 | 582 ft | 23 kts | 1° |
| 2026-05-05 00:09 | 32.90551 | -97.03189 | 583 ft | 20 kts | 1° |
| 2026-05-05 00:09 | 32.90709 | -97.03188 | 582 ft | 25 kts | 1° |
| 2026-05-05 00:09 | 32.90879 | -97.03188 | 585 ft | 24 kts | 0° |
| 2026-05-05 00:09 | 32.91036 | -97.03187 | 584 ft | 23 kts | 360° |
| 2026-05-05 00:10 | 32.91201 | -97.03186 | 585 ft | 21 kts | 0° |
| 2026-05-05 00:10 | 32.91362 | -97.03185 | 585 ft | 25 kts | 1° |
| 2026-05-05 00:10 | 32.91509 | -97.03184 | 581 ft | 11 kts | 360° |
| 2026-05-05 00:10 | 32.91562 | -97.03124 | 583 ft | 14 kts | 89° |
| 2026-05-05 00:11 | 32.91558 | -97.03005 | 586 ft | 11 kts | 118° |
| 2026-05-05 00:11 | 32.91464 | -97.02988 | 583 ft | 16 kts | 180° |
| 2026-05-05 00:11 | 32.91169 | -97.02990 | 583 ft | 78 kts | 180° |
| 2026-05-05 00:11 | 32.90411 | -97.02994 | 577 ft | 133 kts | 180° |
| 2026-05-05 00:12 | 32.89351 | -97.02999 | 735 ft | 160 kts | 181° |
| 2026-05-05 00:12 | 32.88241 | -97.03071 | 1245 ft | 161 kts | 185° |
| 2026-05-05 00:12 | 32.87111 | -97.03224 | 1774 ft | 167 kts | 185° |
| 2026-05-05 00:12 | 32.85922 | -97.03190 | 2135 ft | 184 kts | 172° |
| 2026-05-05 00:13 | 32.84608 | -97.02660 | 2413 ft | 214 kts | 161° |
| 2026-05-05 00:13 | 32.83178 | -97.01936 | 2891 ft | 231 kts | 160° |
| 2026-05-05 00:13 | 32.81666 | -97.01185 | 3570 ft | 240 kts | 162° |
| 2026-05-05 00:13 | 32.80092 | -97.00413 | 4255 ft | 250 kts | 161° |
| 2026-05-05 00:14 | 32.78560 | -96.99314 | 4971 ft | 267 kts | 142° |
| 2026-05-05 00:14 | 32.77452 | -96.97469 | 5613 ft | 284 kts | 119° |
| 2026-05-05 00:14 | 32.76737 | -96.95231 | 6245 ft | 295 kts | 111° |
| 2026-05-05 00:14 | 32.76398 | -96.92799 | 6833 ft | 304 kts | 91° |
| 2026-05-05 00:15 | 32.76490 | -96.90276 | 7523 ft | 308 kts | 87° |
| 2026-05-05 00:15 | 32.76582 | -96.88587 | 7987 ft | 310 kts | 87° |
| 2026-05-05 00:15 | 32.76710 | -96.86022 | 8698 ft | 313 kts | 87° |
| 2026-05-05 00:15 | 32.77114 | -96.82616 | 9625 ft | 316 kts | 68° |
| 2026-05-05 00:16 | 32.78064 | -96.80262 | 10226 ft | 320 kts | 58° |
| 2026-05-05 00:16 | 32.79196 | -96.77908 | 10573 ft | 336 kts | 57° |
| 2026-05-05 00:16 | 32.80390 | -96.75433 | 10866 ft | 354 kts | 58° |
| 2026-05-05 00:16 | 32.81624 | -96.72821 | 11168 ft | 370 kts | 58° |
| 2026-05-05 00:17 | 32.82463 | -96.71031 | 11462 ft | 376 kts | 58° |
| 2026-05-05 00:17 | 32.83757 | -96.68260 | 12108 ft | 380 kts | 58° |
| 2026-05-05 00:17 | 32.85036 | -96.65493 | 12787 ft | 384 kts | 58° |
| 2026-05-05 00:17 | 32.86328 | -96.62698 | 13464 ft | 387 kts | 58° |
| 2026-05-05 00:18 | 32.87612 | -96.59912 | 14069 ft | 391 kts | 58° |
| 2026-05-05 00:18 | 32.88921 | -96.57063 | 14658 ft | 394 kts | 57° |
| 2026-05-05 00:18 | 32.90239 | -96.54189 | 15278 ft | 398 kts | 57° |
| 2026-05-05 00:18 | 32.91570 | -96.51286 | 15863 ft | 401 kts | 57° |
| 2026-05-05 00:19 | 32.92919 | -96.48348 | 16450 ft | 405 kts | 57° |
| 2026-05-05 00:19 | 32.94272 | -96.45384 | 17050 ft | 409 kts | 57° |
| 2026-05-05 00:19 | 32.95638 | -96.42398 | 17636 ft | 412 kts | 57° |
| 2026-05-05 00:19 | 32.97011 | -96.39394 | 18194 ft | 416 kts | 56° |
| 2026-05-05 00:20 | 32.98409 | -96.36348 | 18666 ft | 420 kts | 56° |
| 2026-05-05 00:20 | 32.99774 | -96.33293 | 19128 ft | 426 kts | 59° |
| 2026-05-05 00:20 | 33.00971 | -96.30033 | 19577 ft | 433 kts | 62° |
| 2026-05-05 00:20 | 33.02137 | -96.26713 | 20038 ft | 437 kts | 62° |
| 2026-05-05 00:21 | 33.03315 | -96.23363 | 20496 ft | 441 kts | 62° |
| 2026-05-05 00:21 | 33.04509 | -96.19963 | 20954 ft | 445 kts | 62° |
| 2026-05-05 00:21 | 33.05715 | -96.16535 | 21428 ft | 449 kts | 62° |
| 2026-05-05 00:21 | 33.06930 | -96.13091 | 21868 ft | 453 kts | 61° |
| 2026-05-05 00:22 | 33.08150 | -96.09654 | 22300 ft | 457 kts | 61° |
| 2026-05-05 00:22 | 33.09403 | -96.06154 | 22761 ft | 461 kts | 61° |
| 2026-05-05 00:22 | 33.10662 | -96.02619 | 23226 ft | 464 kts | 61° |
| 2026-05-05 00:22 | 33.11922 | -95.99061 | 23618 ft | 468 kts | 61° |
| 2026-05-05 00:23 | 33.13193 | -95.95463 | 23980 ft | 471 kts | 61° |
| 2026-05-05 00:23 | 33.14467 | -95.91837 | 24343 ft | 475 kts | 61° |
| 2026-05-05 00:23 | 33.15746 | -95.88191 | 24701 ft | 478 kts | 61° |
| 2026-05-05 00:23 | 33.17030 | -95.84529 | 25054 ft | 481 kts | 60° |
| 2026-05-05 00:24 | 33.18324 | -95.80831 | 25404 ft | 484 kts | 60° |
| 2026-05-05 00:24 | 33.19618 | -95.77104 | 25755 ft | 487 kts | 60° |
| 2026-05-05 00:24 | 33.20924 | -95.73355 | 26099 ft | 490 kts | 60° |
| 2026-05-05 00:24 | 33.22236 | -95.69586 | 26466 ft | 493 kts | 60° |
| 2026-05-05 00:25 | 33.23548 | -95.65798 | 26842 ft | 495 kts | 60° |
| 2026-05-05 00:25 | 33.24871 | -95.61987 | 27205 ft | 498 kts | 60° |
| 2026-05-05 00:25 | 33.26198 | -95.58158 | 27525 ft | 500 kts | 59° |
| 2026-05-05 00:25 | 33.27533 | -95.54289 | 27841 ft | 503 kts | 59° |
| 2026-05-05 00:26 | 33.28875 | -95.50411 | 28148 ft | 506 kts | 59° |
| 2026-05-05 00:26 | 33.30224 | -95.46513 | 28462 ft | 509 kts | 59° |
| 2026-05-05 00:26 | 33.31566 | -95.42634 | 28760 ft | 512 kts | 59° |
| 2026-05-05 00:26 | 33.32928 | -95.38686 | 29056 ft | 515 kts | 59° |
| 2026-05-05 00:27 | 33.34292 | -95.34721 | 29415 ft | 516 kts | 59° |
| 2026-05-05 00:27 | 33.35655 | -95.30757 | 29836 ft | 515 kts | 58° |
| 2026-05-05 00:27 | 33.37016 | -95.26791 | 30171 ft | 515 kts | 58° |
| 2026-05-05 00:27 | 33.38373 | -95.22828 | 30481 ft | 515 kts | 58° |
| 2026-05-05 00:28 | 33.39728 | -95.18858 | 30779 ft | 515 kts | 58° |
| 2026-05-05 00:28 | 33.41084 | -95.14893 | 31070 ft | 515 kts | 58° |
| 2026-05-05 00:28 | 33.42437 | -95.10925 | 31355 ft | 515 kts | 58° |
| 2026-05-05 00:28 | 33.43796 | -95.06951 | 31640 ft | 515 kts | 57° |
| 2026-05-05 00:29 | 33.45150 | -95.02980 | 31909 ft | 516 kts | 58° |
| 2026-05-05 00:29 | 33.46501 | -94.98986 | 32183 ft | 516 kts | 57° |
| 2026-05-05 00:29 | 33.47850 | -94.95001 | 32477 ft | 516 kts | 57° |
| 2026-05-05 00:29 | 33.49184 | -94.91066 | 32775 ft | 515 kts | 57° |
| 2026-05-05 00:30 | 33.50531 | -94.87105 | 32856 ft | 512 kts | 57° |
| 2026-05-05 00:30 | 33.53209 | -94.79214 | 32842 ft | 511 kts | 57° |
| 2026-05-05 00:31 | 33.55882 | -94.71307 | 32839 ft | 511 kts | 57° |
| 2026-05-05 00:31 | 33.58546 | -94.63383 | 32838 ft | 511 kts | 57° |
| 2026-05-05 00:32 | 33.61177 | -94.55521 | 32878 ft | 511 kts | 57° |
| 2026-05-05 00:32 | 33.63830 | -94.47612 | 32842 ft | 510 kts | 57° |
| 2026-05-05 00:33 | 33.66474 | -94.39698 | 32840 ft | 511 kts | 57° |
| 2026-05-05 00:33 | 33.69117 | -94.31785 | 32838 ft | 511 kts | 57° |
| 2026-05-05 00:34 | 33.71874 | -94.23958 | 32837 ft | 500 kts | 50° |
| 2026-05-05 00:34 | 33.75283 | -94.16760 | 32842 ft | 494 kts | 47° |
| 2026-05-05 00:35 | 33.78737 | -94.09609 | 32834 ft | 494 kts | 47° |
| 2026-05-05 00:35 | 33.82171 | -94.02427 | 32839 ft | 495 kts | 47° |
| 2026-05-05 00:36 | 33.85588 | -93.95248 | 32835 ft | 495 kts | 47° |
| 2026-05-05 00:36 | 33.88987 | -93.88106 | 32840 ft | 495 kts | 47° |
| 2026-05-05 00:37 | 33.92399 | -93.80922 | 32878 ft | 493 kts | 47° |
| 2026-05-05 00:37 | 33.95794 | -93.73758 | 32845 ft | 492 kts | 47° |
| 2026-05-05 00:38 | 33.99186 | -93.66590 | 32843 ft | 492 kts | 47° |
| 2026-05-05 00:38 | 34.02563 | -93.59419 | 32841 ft | 492 kts | 47° |
| 2026-05-05 00:39 | 34.06106 | -93.52424 | 32835 ft | 484 kts | 43° |
| 2026-05-05 00:39 | 34.09828 | -93.45731 | 32846 ft | 483 kts | 43° |
| 2026-05-05 00:40 | 34.13595 | -93.38953 | 32852 ft | 483 kts | 43° |
| 2026-05-05 00:40 | 34.17312 | -93.32258 | 32896 ft | 484 kts | 43° |
| 2026-05-05 00:41 | 34.21054 | -93.25495 | 32865 ft | 484 kts | 43° |
| 2026-05-05 00:41 | 34.24798 | -93.18734 | 32863 ft | 484 kts | 43° |
| 2026-05-05 00:42 | 34.28530 | -93.11950 | 32857 ft | 484 kts | 43° |
| 2026-05-05 00:42 | 34.32256 | -93.05157 | 32872 ft | 484 kts | 43° |
| 2026-05-05 00:43 | 34.35957 | -92.98420 | 32864 ft | 483 kts | 43° |
| 2026-05-05 00:43 | 34.39695 | -92.91606 | 32859 ft | 483 kts | 43° |
| 2026-05-05 00:44 | 34.43387 | -92.84851 | 32861 ft | 484 kts | 43° |
| 2026-05-05 00:44 | 34.47095 | -92.78041 | 32875 ft | 485 kts | 44° |
| 2026-05-05 00:45 | 34.50822 | -92.71195 | 32854 ft | 486 kts | 44° |
| 2026-05-05 00:45 | 34.54539 | -92.64335 | 32863 ft | 486 kts | 44° |
| 2026-05-05 00:46 | 34.58263 | -92.57484 | 32851 ft | 486 kts | 44° |
| 2026-05-05 00:46 | 34.61953 | -92.50581 | 32855 ft | 486 kts | 44° |
| 2026-05-05 00:47 | 34.65631 | -92.43748 | 32848 ft | 486 kts | 44° |
| 2026-05-05 00:47 | 34.69352 | -92.36880 | 32856 ft | 486 kts | 44° |
| 2026-05-05 00:48 | 34.73069 | -92.30006 | 32869 ft | 489 kts | 44° |
| 2026-05-05 00:48 | 34.76804 | -92.23061 | 32859 ft | 491 kts | 45° |
| 2026-05-05 00:49 | 34.80534 | -92.16093 | 32849 ft | 488 kts | 43° |
| 2026-05-05 00:49 | 34.82609 | -92.12905 | 32840 ft | 476 kts | 36° |
| 2026-05-05 00:49 | 34.84799 | -92.09886 | 32845 ft | 474 kts | 35° |
| 2026-05-05 00:50 | 34.89206 | -92.03908 | 32841 ft | 475 kts | 35° |
| 2026-05-05 00:50 | 34.93596 | -91.97885 | 32839 ft | 475 kts | 35° |
| 2026-05-05 00:51 | 34.97954 | -91.91906 | 32888 ft | 475 kts | 35° |
| 2026-05-05 00:51 | 35.02350 | -91.85839 | 32869 ft | 478 kts | 35° |
| 2026-05-05 00:52 | 35.06743 | -91.79752 | 32864 ft | 478 kts | 35° |
| 2026-05-05 00:52 | 35.11139 | -91.73658 | 32865 ft | 478 kts | 35° |
| 2026-05-05 00:53 | 35.15533 | -91.67556 | 32869 ft | 478 kts | 35° |
| 2026-05-05 00:53 | 35.19926 | -91.61441 | 32860 ft | 478 kts | 36° |
| 2026-05-05 00:54 | 35.24315 | -91.55321 | 32898 ft | 478 kts | 35° |
| 2026-05-05 00:54 | 35.28698 | -91.49195 | 32884 ft | 477 kts | 35° |
| 2026-05-05 00:55 | 35.33057 | -91.43091 | 32874 ft | 476 kts | 35° |
| 2026-05-05 00:55 | 35.37419 | -91.36981 | 32881 ft | 476 kts | 36° |
| 2026-05-05 00:56 | 35.41732 | -91.30880 | 32880 ft | 476 kts | 36° |
| 2026-05-05 00:56 | 35.46081 | -91.24759 | 32878 ft | 476 kts | 36° |
| 2026-05-05 00:57 | 35.50434 | -91.18619 | 32916 ft | 476 kts | 36° |
| 2026-05-05 00:57 | 35.54759 | -91.12508 | 32894 ft | 472 kts | 36° |
| 2026-05-05 00:58 | 35.59063 | -91.06457 | 32875 ft | 470 kts | 36° |
| 2026-05-05 00:58 | 35.63347 | -91.00383 | 32872 ft | 470 kts | 36° |
| 2026-05-05 00:59 | 35.67598 | -90.94337 | 32862 ft | 470 kts | 36° |
| 2026-05-05 00:59 | 35.71889 | -90.88244 | 32855 ft | 470 kts | 36° |
| 2026-05-05 01:00 | 35.76162 | -90.82147 | 32872 ft | 470 kts | 37° |
| 2026-05-05 01:00 | 35.80435 | -90.76064 | 32878 ft | 469 kts | 38° |
| 2026-05-05 01:01 | 35.84692 | -90.69992 | 32852 ft | 467 kts | 38° |
| 2026-05-05 01:01 | 35.88907 | -90.63953 | 32842 ft | 467 kts | 39° |
| 2026-05-05 01:02 | 35.93143 | -90.57862 | 32839 ft | 467 kts | 39° |
| 2026-05-05 01:02 | 35.94572 | -90.55799 | 32847 ft | 468 kts | 39° |
| 2026-05-05 01:03 | 35.96895 | -90.52452 | 32842 ft | 467 kts | 38° |
| 2026-05-05 01:03 | 36.01153 | -90.46377 | 32842 ft | 467 kts | 38° |
| 2026-05-05 01:04 | 36.05387 | -90.40274 | 32845 ft | 468 kts | 39° |
| 2026-05-05 01:04 | 36.11693 | -90.31138 | 32833 ft | 464 kts | 39° |
| 2026-05-05 01:05 | 36.15175 | -90.26085 | 32837 ft | 464 kts | 39° |
| 2026-05-05 01:05 | 36.19371 | -90.20002 | 32833 ft | 464 kts | 39° |
| 2026-05-05 01:06 | 36.23557 | -90.13904 | 32832 ft | 465 kts | 39° |
| 2026-05-05 01:06 | 36.27788 | -90.07873 | 32835 ft | 462 kts | 37° |
| 2026-05-05 01:07 | 36.32112 | -90.02010 | 32830 ft | 461 kts | 37° |
| 2026-05-05 01:07 | 36.36452 | -89.96146 | 32838 ft | 460 kts | 38° |
| 2026-05-05 01:08 | 36.40731 | -89.90328 | 32829 ft | 459 kts | 38° |
| 2026-05-05 01:08 | 36.45033 | -89.84465 | 32828 ft | 459 kts | 38° |
| 2026-05-05 01:09 | 36.49334 | -89.78592 | 32826 ft | 459 kts | 38° |
| 2026-05-05 01:09 | 36.53631 | -89.72701 | 32834 ft | 460 kts | 38° |
| 2026-05-05 01:10 | 36.57949 | -89.66822 | 32830 ft | 460 kts | 38° |
| 2026-05-05 01:10 | 36.62251 | -89.60928 | 32823 ft | 460 kts | 38° |
| 2026-05-05 01:11 | 36.66547 | -89.55007 | 32814 ft | 460 kts | 39° |
| 2026-05-05 01:11 | 36.70814 | -89.49135 | 32827 ft | 460 kts | 39° |
| 2026-05-05 01:12 | 36.75106 | -89.43208 | 32839 ft | 460 kts | 39° |
| 2026-05-05 01:12 | 36.79396 | -89.37268 | 32821 ft | 461 kts | 39° |
| 2026-05-05 01:13 | 36.83687 | -89.31324 | 32817 ft | 461 kts | 39° |
| 2026-05-05 01:13 | 36.87973 | -89.25370 | 32821 ft | 461 kts | 39° |
| 2026-05-05 01:14 | 36.92221 | -89.19456 | 32828 ft | 459 kts | 40° |
| 2026-05-05 01:14 | 36.96487 | -89.13512 | 32821 ft | 459 kts | 40° |
| 2026-05-05 01:15 | 37.00748 | -89.07562 | 32837 ft | 459 kts | 40° |
| 2026-05-05 01:15 | 37.04998 | -89.01614 | 32815 ft | 458 kts | 40° |
| 2026-05-05 01:16 | 37.09255 | -88.95652 | 32811 ft | 459 kts | 40° |
| 2026-05-05 01:16 | 37.13500 | -88.89686 | 32810 ft | 458 kts | 40° |
| 2026-05-05 01:17 | 37.17754 | -88.83719 | 32821 ft | 460 kts | 41° |
| 2026-05-05 01:17 | 37.22020 | -88.77698 | 32815 ft | 462 kts | 41° |
| 2026-05-05 01:18 | 37.26292 | -88.71666 | 32816 ft | 461 kts | 42° |
| 2026-05-05 01:18 | 37.30522 | -88.65669 | 32812 ft | 461 kts | 42° |
| 2026-05-05 01:19 | 37.34792 | -88.59638 | 32805 ft | 461 kts | 42° |
| 2026-05-05 01:19 | 37.39045 | -88.53590 | 32806 ft | 462 kts | 42° |
| 2026-05-05 01:20 | 37.43301 | -88.47537 | 32800 ft | 462 kts | 42° |
| 2026-05-05 01:20 | 37.47579 | -88.41454 | 32822 ft | 465 kts | 43° |
| 2026-05-05 01:21 | 37.51848 | -88.35356 | 32798 ft | 464 kts | 43° |
| 2026-05-05 01:21 | 37.56118 | -88.29249 | 32801 ft | 464 kts | 43° |
| 2026-05-05 01:22 | 37.60380 | -88.23140 | 32797 ft | 464 kts | 43° |
| 2026-05-05 01:22 | 37.64641 | -88.17028 | 32797 ft | 464 kts | 43° |
| 2026-05-05 01:23 | 37.68870 | -88.10942 | 32804 ft | 464 kts | 43° |
| 2026-05-05 01:23 | 37.73117 | -88.04818 | 32814 ft | 462 kts | 43° |
| 2026-05-05 01:24 | 37.77351 | -87.98706 | 32801 ft | 462 kts | 43° |
| 2026-05-05 01:24 | 37.81587 | -87.92583 | 32789 ft | 462 kts | 43° |
| 2026-05-05 01:25 | 37.85813 | -87.86458 | 32790 ft | 462 kts | 43° |
| 2026-05-05 01:25 | 37.90035 | -87.80326 | 32791 ft | 462 kts | 43° |
| 2026-05-05 01:26 | 37.93714 | -87.73596 | 32803 ft | 473 kts | 61° |
| 2026-05-05 01:26 | 37.96173 | -87.65952 | 32799 ft | 471 kts | 65° |
| 2026-05-05 01:27 | 37.98582 | -87.58240 | 32782 ft | 471 kts | 64° |
| 2026-05-05 01:27 | 38.01020 | -87.50533 | 32792 ft | 471 kts | 64° |
| 2026-05-05 01:28 | 38.03463 | -87.42832 | 32782 ft | 471 kts | 64° |
| 2026-05-05 01:28 | 38.05902 | -87.35115 | 32784 ft | 471 kts | 64° |
| 2026-05-05 01:29 | 38.08326 | -87.27416 | 32777 ft | 469 kts | 65° |
| 2026-05-05 01:29 | 38.10741 | -87.19731 | 32792 ft | 469 kts | 65° |
| 2026-05-05 01:30 | 38.13156 | -87.12015 | 32642 ft | 466 kts | 65° |
| 2026-05-05 01:30 | 38.14337 | -87.08235 | 31661 ft | 470 kts | 65° |
| 2026-05-05 01:30 | 38.15555 | -87.04336 | 30511 ft | 479 kts | 65° |
| 2026-05-05 01:31 | 38.16781 | -87.00399 | 29775 ft | 478 kts | 65° |
| 2026-05-05 01:31 | 38.17999 | -86.96479 | 29006 ft | 474 kts | 65° |
| 2026-05-05 01:31 | 38.19200 | -86.92607 | 28286 ft | 469 kts | 66° |
| 2026-05-05 01:31 | 38.20396 | -86.88753 | 27509 ft | 467 kts | 66° |
| 2026-05-05 01:32 | 38.21581 | -86.84933 | 26850 ft | 462 kts | 66° |
| 2026-05-05 01:32 | 38.22755 | -86.81139 | 26131 ft | 459 kts | 66° |
| 2026-05-05 01:32 | 38.23916 | -86.77386 | 25494 ft | 454 kts | 66° |
| 2026-05-05 01:32 | 38.25068 | -86.73656 | 24855 ft | 450 kts | 66° |
| 2026-05-05 01:33 | 38.26109 | -86.69902 | 24196 ft | 449 kts | 73° |
| 2026-05-05 01:33 | 38.26827 | -86.66045 | 23608 ft | 445 kts | 76° |
| 2026-05-05 01:33 | 38.27489 | -86.62255 | 22933 ft | 442 kts | 76° |
| 2026-05-05 01:33 | 38.28154 | -86.58464 | 22306 ft | 437 kts | 76° |
| 2026-05-05 01:34 | 38.28816 | -86.54723 | 21860 ft | 428 kts | 76° |
| 2026-05-05 01:34 | 38.29463 | -86.51082 | 21572 ft | 415 kts | 76° |
| 2026-05-05 01:34 | 38.30092 | -86.47547 | 21381 ft | 405 kts | 76° |
| 2026-05-05 01:34 | 38.30710 | -86.44053 | 21227 ft | 405 kts | 76° |
| 2026-05-05 01:35 | 38.31330 | -86.40555 | 21089 ft | 404 kts | 76° |
| 2026-05-05 01:35 | 38.31950 | -86.37062 | 20955 ft | 403 kts | 76° |
| 2026-05-05 01:35 | 38.32566 | -86.33575 | 20821 ft | 403 kts | 76° |
| 2026-05-05 01:35 | 38.33178 | -86.30099 | 20758 ft | 402 kts | 76° |
| 2026-05-05 01:36 | 38.33790 | -86.26619 | 20763 ft | 402 kts | 76° |
| 2026-05-05 01:36 | 38.34401 | -86.23134 | 20779 ft | 402 kts | 76° |
| 2026-05-05 01:36 | 38.35205 | -86.19734 | 20778 ft | 399 kts | 65° |
| 2026-05-05 01:36 | 38.36441 | -86.16614 | 20330 ft | 393 kts | 58° |
| 2026-05-05 01:37 | 38.37769 | -86.13628 | 19708 ft | 393 kts | 58° |
| 2026-05-05 01:37 | 38.39121 | -86.10607 | 19174 ft | 390 kts | 58° |
| 2026-05-05 01:37 | 38.40448 | -86.07607 | 18701 ft | 386 kts | 58° |
| 2026-05-05 01:37 | 38.41747 | -86.04641 | 18246 ft | 381 kts | 58° |
| 2026-05-05 01:38 | 38.43028 | -86.01706 | 17790 ft | 376 kts | 58° |
| 2026-05-05 01:38 | 38.44295 | -85.98794 | 17458 ft | 376 kts | 58° |
| 2026-05-05 01:38 | 38.45563 | -85.95880 | 17169 ft | 376 kts | 58° |
| 2026-05-05 01:38 | 38.46828 | -85.92965 | 16923 ft | 375 kts | 58° |
| 2026-05-05 01:39 | 38.48088 | -85.90062 | 16699 ft | 374 kts | 58° |
| 2026-05-05 01:39 | 38.49347 | -85.87157 | 16488 ft | 374 kts | 58° |
| 2026-05-05 01:39 | 38.50605 | -85.84249 | 16280 ft | 373 kts | 58° |
| 2026-05-05 01:39 | 38.51861 | -85.81344 | 16073 ft | 373 kts | 58° |
| 2026-05-05 01:40 | 38.53111 | -85.78453 | 15868 ft | 372 kts | 58° |
| 2026-05-05 01:40 | 38.54359 | -85.75562 | 15669 ft | 371 kts | 58° |
| 2026-05-05 01:40 | 38.55606 | -85.72676 | 15478 ft | 371 kts | 59° |
| 2026-05-05 01:40 | 38.56847 | -85.69797 | 15280 ft | 370 kts | 59° |
| 2026-05-05 01:41 | 38.58090 | -85.66909 | 15106 ft | 370 kts | 59° |
| 2026-05-05 01:41 | 38.59317 | -85.64060 | 14918 ft | 371 kts | 59° |
| 2026-05-05 01:41 | 38.60559 | -85.61171 | 14726 ft | 371 kts | 59° |
| 2026-05-05 01:41 | 38.61799 | -85.58282 | 14539 ft | 370 kts | 59° |
| 2026-05-05 01:42 | 38.63039 | -85.55391 | 14349 ft | 369 kts | 59° |
| 2026-05-05 01:42 | 38.64273 | -85.52513 | 14172 ft | 369 kts | 59° |
| 2026-05-05 01:42 | 38.65506 | -85.49638 | 13989 ft | 368 kts | 59° |
| 2026-05-05 01:42 | 38.66734 | -85.46770 | 13811 ft | 367 kts | 59° |
| 2026-05-05 01:43 | 38.67965 | -85.43901 | 13764 ft | 367 kts | 58° |
| 2026-05-05 01:43 | 38.69360 | -85.41189 | 13617 ft | 361 kts | 51° |
| 2026-05-05 01:43 | 38.70847 | -85.38614 | 13085 ft | 358 kts | 51° |
| 2026-05-05 01:43 | 38.72333 | -85.36073 | 12524 ft | 355 kts | 50° |
| 2026-05-05 01:44 | 38.73791 | -85.33569 | 12041 ft | 357 kts | 51° |
| 2026-05-05 01:44 | 38.75270 | -85.31018 | 11646 ft | 356 kts | 51° |
| 2026-05-05 01:44 | 38.76759 | -85.28443 | 11231 ft | 355 kts | 51° |
| 2026-05-05 01:44 | 38.78208 | -85.25934 | 10881 ft | 353 kts | 51° |
| 2026-05-05 01:45 | 38.79633 | -85.23424 | 10607 ft | 343 kts | 52° |
| 2026-05-05 01:45 | 38.80965 | -85.20957 | 10389 ft | 331 kts | 53° |
| 2026-05-05 01:45 | 38.82253 | -85.18552 | 10097 ft | 322 kts | 53° |
| 2026-05-05 01:45 | 38.83488 | -85.16192 | 9808 ft | 316 kts | 57° |
| 2026-05-05 01:46 | 38.84456 | -85.13679 | 9569 ft | 312 kts | 65° |
| 2026-05-05 01:46 | 38.85309 | -85.11154 | 9348 ft | 305 kts | 65° |
| 2026-05-05 01:46 | 38.86138 | -85.08681 | 9137 ft | 299 kts | 65° |
| 2026-05-05 01:46 | 38.86964 | -85.06227 | 8948 ft | 300 kts | 66° |
| 2026-05-05 01:47 | 38.87797 | -85.03763 | 8747 ft | 301 kts | 65° |
| 2026-05-05 01:47 | 38.88634 | -85.01292 | 8560 ft | 300 kts | 66° |
| 2026-05-05 01:47 | 38.89466 | -84.98838 | 8376 ft | 299 kts | 66° |
| 2026-05-05 01:47 | 38.90297 | -84.96387 | 8185 ft | 300 kts | 66° |
| 2026-05-05 01:48 | 38.91121 | -84.93941 | 8006 ft | 294 kts | 67° |
| 2026-05-05 01:48 | 38.91894 | -84.91549 | 7967 ft | 289 kts | 68° |
| 2026-05-05 01:48 | 38.92659 | -84.89192 | 7977 ft | 289 kts | 67° |
| 2026-05-05 01:48 | 38.93445 | -84.86813 | 7994 ft | 289 kts | 67° |
| 2026-05-05 01:49 | 38.94234 | -84.84446 | 7995 ft | 289 kts | 67° |
| 2026-05-05 01:49 | 38.95033 | -84.82078 | 7639 ft | 289 kts | 66° |
| 2026-05-05 01:49 | 38.96089 | -84.79917 | 7227 ft | 285 kts | 43° |
| 2026-05-05 01:49 | 38.97735 | -84.78626 | 6974 ft | 274 kts | 7° |
| 2026-05-05 01:50 | 38.99579 | -84.78568 | 6834 ft | 262 kts | 344° |
| 2026-05-05 01:50 | 39.01381 | -84.78914 | 6714 ft | 262 kts | 343° |
| 2026-05-05 01:50 | 39.03192 | -84.79200 | 6568 ft | 263 kts | 346° |
| 2026-05-05 01:50 | 39.05017 | -84.79410 | 6416 ft | 264 kts | 348° |
| 2026-05-05 01:51 | 39.06866 | -84.79491 | 6263 ft | 267 kts | 351° |
| 2026-05-05 01:51 | 39.08725 | -84.79512 | 6113 ft | 268 kts | 352° |
| 2026-05-05 01:51 | 39.10584 | -84.79520 | 5865 ft | 266 kts | 352° |
| 2026-05-05 01:51 | 39.12427 | -84.79525 | 5478 ft | 264 kts | 352° |
| 2026-05-05 01:52 | 39.14268 | -84.79524 | 5147 ft | 265 kts | 352° |
| 2026-05-05 01:52 | 39.16112 | -84.79521 | 4962 ft | 264 kts | 352° |
| 2026-05-05 01:52 | 39.17947 | -84.79520 | 4818 ft | 263 kts | 352° |
| 2026-05-05 01:52 | 39.19761 | -84.79244 | 4651 ft | 273 kts | 15° |
| 2026-05-05 01:53 | 39.21344 | -84.77859 | 4472 ft | 280 kts | 50° |
| 2026-05-05 01:53 | 39.21996 | -84.76427 | 4360 ft | 279 kts | 74° |
| 2026-05-05 01:53 | 39.22198 | -84.74004 | 4204 ft | 270 kts | 99° |
| 2026-05-05 01:53 | 39.22040 | -84.71597 | 4050 ft | 269 kts | 100° |
| 2026-05-05 01:54 | 39.21910 | -84.69189 | 3969 ft | 270 kts | 98° |
| 2026-05-05 01:54 | 39.21664 | -84.66821 | 3975 ft | 261 kts | 118° |
| 2026-05-05 01:54 | 39.20726 | -84.65082 | 3957 ft | 216 kts | 154° |
| 2026-05-05 01:54 | 39.19420 | -84.64439 | 3752 ft | 195 kts | 183° |
| 2026-05-05 01:55 | 39.18086 | -84.64425 | 3503 ft | 188 kts | 191° |
| 2026-05-05 01:55 | 39.16850 | -84.64522 | 3395 ft | 168 kts | 192° |
| 2026-05-05 01:55 | 39.15739 | -84.64577 | 3288 ft | 151 kts | 191° |
| 2026-05-05 01:55 | 39.14744 | -84.64611 | 3056 ft | 137 kts | 191° |
| 2026-05-05 01:56 | 39.13822 | -84.64623 | 2683 ft | 127 kts | 191° |
| 2026-05-05 01:56 | 39.12950 | -84.64630 | 2407 ft | 127 kts | 191° |
| 2026-05-05 01:56 | 39.12055 | -84.64636 | 2216 ft | 127 kts | 191° |
| 2026-05-05 01:56 | 39.11180 | -84.64639 | 2049 ft | 128 kts | 189° |
| 2026-05-05 01:57 | 39.10290 | -84.64644 | 1969 ft | 128 kts | 190° |
| 2026-05-05 01:57 | 39.09398 | -84.64655 | 1787 ft | 128 kts | 191° |
| 2026-05-05 01:57 | 39.08499 | -84.64664 | 1562 ft | 128 kts | 188° |
| 2026-05-05 01:57 | 39.07596 | -84.64690 | 1363 ft | 132 kts | 183° |
| 2026-05-05 01:58 | 39.06675 | -84.64654 | 1140 ft | 132 kts | 182° |
| 2026-05-05 01:58 | 39.05752 | -84.64665 | 984 ft | 133 kts | 181° |
| 2026-05-05 01:58 | 39.04836 | -84.64670 | 908 ft | 131 kts | 181° |
| 2026-05-05 01:58 | 39.04051 | -84.64671 | 887 ft | 82 kts | 180° |
| 2026-05-05 01:59 | 39.03688 | -84.64668 | 888 ft | 45 kts | 185° |
| 2026-05-05 01:59 | 39.03451 | -84.64774 | 887 ft | 25 kts | 241° |
| 2026-05-05 01:59 | 39.03436 | -84.64839 | 885 ft | 0 kts | 267° |
| 2026-05-05 02:00 | 39.03450 | -84.64874 | 885 ft | 11 kts | 335° |
| 2026-05-05 02:00 | 39.03546 | -84.64887 | 885 ft | 20 kts | 359° |
| 2026-05-05 02:00 | 39.03688 | -84.64888 | 884 ft | 19 kts | 359° |
| 2026-05-05 02:00 | 39.03827 | -84.64886 | 884 ft | 21 kts | 1° |
| 2026-05-05 02:01 | 39.03976 | -84.64887 | 884 ft | 22 kts | 359° |
| 2026-05-05 02:01 | 39.04128 | -84.64884 | 884 ft | 20 kts | 358° |
| 2026-05-05 02:01 | 39.04273 | -84.64884 | 884 ft | 22 kts | 0° |
| 2026-05-05 02:01 | 39.04428 | -84.64881 | 885 ft | 23 kts | 359° |
| 2026-05-05 02:02 | 39.04593 | -84.64884 | 885 ft | 24 kts | 1° |
| 2026-05-05 02:02 | 39.04739 | -84.64881 | 885 ft | 22 kts | 359° |
| 2026-05-05 02:02 | 39.04873 | -84.64880 | 885 ft | 15 kts | 359° |
| 2026-05-05 02:02 | 39.04986 | -84.64879 | 885 ft | 17 kts | 359° |
| 2026-05-05 02:03 | 39.05110 | -84.64881 | 884 ft | 19 kts | 356° |
| 2026-05-05 02:03 | 39.05215 | -84.64933 | 884 ft | 3 kts | 287° |
| 2026-05-05 02:03 | 39.05215 | -84.64935 | 884 ft | 3 kts | 286° |
| 2026-05-05 02:03 | 39.05325 | -84.64981 | 884 ft | 23 kts | 4° |
| 2026-05-05 02:04 | 39.05433 | -84.65034 | 884 ft | 17 kts | 280° |
| 2026-05-05 02:04 | 39.05434 | -84.65163 | 884 ft | 9 kts | 268° |
| 2026-05-05 02:04 | 39.05422 | -84.65236 | 884 ft | 8 kts | 232° |
| 2026-05-05 02:04 | 39.05387 | -84.65269 | 884 ft | 0 kts | 211° |
| 2026-05-05 02:05 | 39.05381 | -84.65275 | 884 ft | 0 kts | 213° |